Kezdőlap
METAR-TAF:

METAR-TAF

Repülőterek :

Magyarhradis, Csehország

földrajzi szélesség: 49-01-46N, földrajzi hosszúság: 017-26-23E, magasság: 177 m

Jelenlegi meteorológiai megfigyelések

A jelentés 33 perccel ezelõtt készült, 06:00 UTC
Északi szél 9 kt
Hőmérséklet -3°C
Páratartalom 80%
Légköri nyomás 1018 hPa
Látótávolság: 8000 m
Szakadozott felhőzet 3700 lábon
enyhe havazás

METAR: LKKU 230600Z 36009KT 8000 -SN BKN037 M03/M06 Q1018

Idő: 07:33 (06:33 UTC)


TAF: hiányzik

Meteorológiai megfigyelések és előrejelzések több, mint 4000 repülőtéren (METAR és TAF jelentéseket).

A térképen piros és sárga pontok jelzik az elérhető meteorológiai állomásokat.

Mozgassa az egeret a pont fölött, hogy megjelenjen az állomás neve.

Azután kattintson az időjárási megfigyelések és előrejelzések megtekintéséhez.

A térkép megváltoztatása: kattintson a fekete keresztel jelölt zöld gombra ráközelítéshez, a vonallal jelölt zöld gombra távolításhoz, vagy a zöld nyilakra a szomszédos térképek eléréséhez.


METAR-TAF: